createdAt,value
2024-01-11T00:00:42.368Z,24.32
2024-01-11T00:01:52.035Z,24.31
2024-01-11T00:02:58.952Z,24.32
2024-01-11T00:04:04.460Z,24.27
2024-01-11T00:05:12.164Z,24.22
2024-01-11T00:06:17.828Z,24.21
2024-01-11T00:07:24.653Z,24.23
2024-01-11T00:08:30.130Z,24.25
2024-01-11T00:09:36.888Z,24.28
2024-01-11T00:10:42.196Z,24.30
2024-01-11T00:11:48.954Z,24.33
2024-01-11T00:12:54.440Z,24.34
2024-01-11T00:14:01.145Z,24.34
2024-01-11T00:15:06.932Z,24.35
2024-01-11T00:16:13.756Z,24.36
2024-01-11T00:17:21.214Z,24.38
2024-01-11T00:18:28.180Z,24.38
2024-01-11T00:19:34.339Z,24.40
2024-01-11T00:20:41.160Z,24.40
2024-01-11T00:21:46.588Z,24.42
2024-01-11T00:22:53.353Z,24.45
2024-01-11T00:23:58.866Z,24.44
2024-01-11T00:25:06.575Z,24.46
2024-01-11T00:26:12.364Z,24.47
2024-01-11T00:27:19.489Z,24.49
2024-01-11T00:28:24.880Z,24.51
2024-01-11T00:29:32.089Z,24.52
2024-01-11T00:30:37.524Z,24.53
2024-01-11T00:31:44.295Z,24.54
2024-01-11T00:32:51.656Z,24.55
2024-01-11T00:33:58.496Z,24.54
2024-01-11T00:35:03.984Z,24.53
2024-01-11T00:36:10.924Z,24.53
2024-01-11T00:37:16.340Z,24.49
2024-01-11T00:38:23.094Z,24.49
2024-01-11T00:39:28.545Z,24.46
2024-01-11T00:40:35.283Z,24.47
2024-01-11T00:41:40.809Z,24.51
2024-01-11T00:42:47.525Z,24.54
2024-01-11T00:43:53.112Z,24.59
2024-01-11T00:44:59.864Z,24.61
2024-01-11T00:46:05.301Z,24.63
2024-01-11T00:47:13.328Z,24.61
2024-01-11T00:48:20.608Z,24.61
2024-01-11T00:49:27.561Z,24.62
2024-01-11T00:50:33.427Z,24.64
2024-01-11T00:51:40.182Z,24.66
2024-01-11T00:52:45.587Z,24.70
2024-01-11T00:53:51.022Z,24.70
2024-01-11T00:54:57.728Z,24.75
2024-01-11T00:56:03.204Z,24.77
2024-01-11T00:57:10.616Z,24.79
2024-01-11T00:58:16.136Z,24.82
2024-01-11T00:59:22.945Z,24.85
2024-01-11T01:00:28.362Z,24.87
2024-01-11T01:01:35.094Z,24.89
2024-01-11T01:02:40.600Z,24.90
2024-01-11T01:03:49.345Z,24.92
2024-01-11T01:04:54.928Z,24.93
2024-01-11T01:06:01.970Z,24.95
2024-01-11T01:07:08.327Z,24.97
2024-01-11T01:08:15.106Z,24.99
2024-01-11T01:09:20.535Z,25.01
2024-01-11T01:10:27.320Z,25.02
2024-01-11T01:11:32.789Z,25.03
2024-01-11T01:12:38.153Z,25.04
2024-01-11T01:13:44.888Z,25.04
2024-01-11T01:14:50.326Z,25.07
2024-01-11T01:15:57.047Z,25.07
2024-01-11T01:17:02.521Z,25.08
2024-01-11T01:18:09.794Z,25.10
2024-01-11T01:19:17.136Z,25.10
2024-01-11T01:20:24.054Z,25.10
2024-01-11T01:21:29.479Z,25.10
2024-01-11T01:22:36.232Z,25.11
2024-01-11T01:23:41.729Z,25.11
2024-01-11T01:24:48.614Z,25.11
2024-01-11T01:25:54.215Z,25.13
2024-01-11T01:27:01.092Z,25.13
2024-01-11T01:28:06.847Z,25.16
2024-01-11T01:29:14.438Z,25.18
2024-01-11T01:30:19.999Z,25.19
2024-01-11T01:31:27.142Z,25.20
2024-01-11T01:32:33.492Z,25.21
2024-01-11T01:33:40.413Z,25.22
2024-01-11T01:34:48.781Z,25.24
2024-01-11T01:35:55.805Z,25.25
2024-01-11T01:37:01.271Z,25.28
2024-01-11T01:38:08.251Z,25.28
2024-01-11T01:39:13.597Z,25.30
2024-01-11T01:40:20.424Z,25.31
2024-01-11T01:41:25.849Z,25.33
2024-01-11T01:42:32.637Z,25.35
2024-01-11T01:43:38.055Z,25.39
2024-01-11T01:44:45.187Z,25.41
2024-01-11T01:45:51.242Z,25.43
2024-01-11T01:46:58.289Z,25.46
2024-01-11T01:48:04.125Z,25.49
2024-01-11T01:49:11.457Z,25.52
2024-01-11T01:50:18.708Z,25.57
2024-01-11T01:51:25.909Z,25.58
2024-01-11T01:52:31.613Z,25.62
2024-01-11T01:53:38.510Z,25.63
2024-01-11T01:54:44.256Z,25.66
2024-01-11T01:55:51.238Z,25.70
2024-01-11T01:56:57.342Z,25.73
2024-01-11T01:58:05.717Z,25.74
2024-01-11T01:59:11.311Z,25.78
2024-01-11T02:00:19.104Z,25.80
2024-01-11T02:01:25.610Z,25.84
2024-01-11T02:02:32.789Z,25.87
2024-01-11T02:03:40.092Z,25.89
2024-01-11T02:04:47.237Z,25.93
2024-01-11T02:05:56.187Z,25.97
2024-01-11T02:07:03.427Z,26.00
2024-01-11T02:08:11.297Z,26.05
2024-01-11T02:09:18.513Z,26.08
2024-01-11T02:10:23.956Z,26.13
2024-01-11T02:11:30.804Z,26.17
2024-01-11T02:12:36.655Z,26.20
2024-01-11T02:13:42.137Z,26.24
2024-01-11T02:14:48.844Z,26.27
2024-01-11T02:15:54.266Z,26.29
2024-01-11T02:17:01.032Z,26.32
2024-01-11T02:18:06.849Z,26.36
2024-01-11T02:19:18.989Z,26.39
2024-01-11T02:20:24.765Z,26.43
2024-01-11T02:21:33.918Z,26.46
2024-01-11T02:22:42.373Z,26.50
2024-01-11T02:23:52.386Z,26.55
2024-01-11T02:25:00.671Z,26.58
2024-01-11T02:26:07.612Z,26.63
2024-01-11T02:27:13.516Z,26.66
2024-01-11T02:28:20.163Z,26.68
2024-01-11T02:29:25.479Z,26.73
2024-01-11T02:30:32.236Z,26.77
2024-01-11T02:31:37.565Z,26.82
2024-01-11T02:32:44.711Z,26.87
2024-01-11T02:33:50.246Z,26.90
2024-01-11T02:34:57.086Z,26.92
2024-01-11T02:36:02.369Z,26.95
2024-01-11T02:37:09.866Z,27.00
2024-01-11T02:38:15.322Z,27.05
2024-01-11T02:39:21.107Z,27.06
2024-01-11T02:40:29.592Z,27.06
2024-01-11T02:41:36.088Z,27.07
2024-01-11T02:42:42.708Z,27.08
2024-01-11T02:43:51.548Z,27.12
2024-01-11T02:44:56.898Z,27.17
2024-01-11T02:46:03.588Z,27.19
2024-01-11T02:47:08.958Z,27.23
2024-01-11T02:48:15.908Z,27.25
2024-01-11T02:49:21.449Z,27.28
2024-01-11T02:50:28.104Z,27.30
2024-01-11T02:51:33.453Z,27.32
2024-01-11T02:52:40.162Z,27.33
2024-01-11T02:53:45.517Z,27.37
2024-01-11T02:54:52.272Z,27.41
2024-01-11T02:56:01.599Z,27.42
2024-01-11T02:57:10.605Z,27.46
2024-01-11T02:58:15.852Z,27.48
2024-01-11T02:59:22.525Z,27.50
2024-01-11T03:00:27.947Z,27.53
2024-01-11T03:01:35.098Z,27.56
2024-01-11T03:02:41.783Z,27.59
2024-01-11T03:03:50.718Z,27.61
2024-01-11T03:04:57.824Z,27.62
2024-01-11T03:06:04.444Z,27.63
2024-01-11T03:07:09.773Z,27.64
2024-01-11T03:08:16.700Z,27.66
2024-01-11T03:09:22.262Z,27.68
2024-01-11T03:10:29.044Z,27.69
2024-01-11T03:11:36.064Z,27.71
2024-01-11T03:12:44.274Z,27.74
2024-01-11T03:13:49.607Z,27.75
2024-01-11T03:14:56.276Z,27.78
2024-01-11T03:16:01.621Z,27.80
2024-01-11T03:17:09.130Z,27.82
2024-01-11T03:18:14.641Z,27.84
2024-01-11T03:19:21.496Z,27.87
2024-01-11T03:20:27.441Z,27.89
2024-01-11T03:21:34.150Z,27.90
2024-01-11T03:22:39.446Z,27.92
2024-01-11T03:23:44.780Z,27.94
2024-01-11T03:24:51.429Z,27.97
2024-01-11T03:25:56.799Z,28.01
2024-01-11T03:27:05.382Z,28.04
2024-01-11T03:28:11.568Z,28.07
2024-01-11T03:29:18.250Z,28.13
2024-01-11T03:30:23.618Z,28.14
2024-01-11T03:31:30.201Z,28.17
2024-01-11T03:32:35.668Z,28.19
2024-01-11T03:33:42.393Z,28.22
2024-01-11T03:34:47.809Z,28.24
2024-01-11T03:35:54.564Z,28.27
2024-01-11T03:37:00.015Z,28.30
2024-01-11T03:38:06.842Z,28.34
2024-01-11T03:39:12.191Z,28.35
2024-01-11T03:40:19.282Z,28.37
2024-01-11T03:41:24.627Z,28.43
2024-01-11T03:42:33.041Z,28.48
2024-01-11T03:43:38.378Z,28.54
2024-01-11T03:44:45.114Z,28.58
2024-01-11T03:45:50.448Z,28.61
2024-01-11T03:46:57.166Z,28.63
2024-01-11T03:48:02.488Z,28.66
2024-01-11T03:49:10.229Z,28.69
2024-01-11T03:50:15.751Z,28.71
2024-01-11T03:51:21.079Z,28.74
2024-01-11T03:52:27.754Z,28.75
2024-01-11T03:53:33.063Z,28.78
2024-01-11T03:54:39.744Z,28.80
2024-01-11T03:55:45.137Z,28.83
2024-01-11T03:56:51.842Z,28.87
2024-01-11T03:57:58.917Z,28.88
2024-01-11T03:59:05.499Z,28.91
2024-01-11T04:00:12.373Z,28.93
2024-01-11T04:01:19.081Z,28.96
2024-01-11T04:02:24.524Z,29.01
2024-01-11T04:03:31.271Z,29.02
2024-01-11T04:04:36.583Z,29.05
2024-01-11T04:05:43.681Z,29.04
2024-01-11T04:06:49.061Z,29.07
2024-01-11T04:07:55.807Z,29.07
2024-01-11T04:09:01.256Z,29.09
2024-01-11T04:10:08.461Z,29.13
2024-01-11T04:11:13.778Z,29.17
2024-01-11T04:12:20.465Z,29.20
2024-01-11T04:13:27.607Z,29.24
2024-01-11T04:14:34.340Z,29.26
2024-01-11T04:15:39.738Z,29.28
2024-01-11T04:16:47.116Z,29.31
2024-01-11T04:17:52.632Z,29.32
2024-01-11T04:18:59.480Z,29.36
2024-01-11T04:20:04.857Z,29.43
2024-01-11T04:21:11.545Z,29.49
2024-01-11T04:22:16.811Z,29.56
2024-01-11T04:23:23.799Z,29.62
2024-01-11T04:24:29.251Z,29.68
2024-01-11T04:25:35.840Z,29.76
2024-01-11T04:26:41.279Z,29.80
2024-01-11T04:27:48.018Z,29.83
2024-01-11T04:28:58.650Z,29.85
2024-01-11T04:30:08.965Z,29.86
2024-01-11T04:31:14.291Z,29.89
2024-01-11T04:32:20.954Z,29.92
2024-01-11T04:33:26.355Z,29.95
2024-01-11T04:34:33.327Z,29.96
2024-01-11T04:35:38.978Z,30.00
2024-01-11T04:36:45.612Z,30.04
2024-01-11T04:37:50.959Z,30.07
2024-01-11T04:38:56.332Z,30.11
2024-01-11T04:40:03.017Z,30.13
2024-01-11T04:41:12.585Z,30.14
2024-01-11T04:42:19.691Z,30.15
2024-01-11T04:43:24.904Z,30.15
2024-01-11T04:44:33.458Z,30.18
2024-01-11T04:45:38.859Z,30.20
2024-01-11T04:46:45.511Z,30.20
2024-01-11T04:47:50.981Z,30.21
2024-01-11T04:48:58.141Z,30.23
2024-01-11T04:50:03.550Z,30.25
2024-01-11T04:51:10.243Z,30.28
2024-01-11T04:52:15.579Z,30.29
2024-01-11T04:53:22.377Z,30.32
2024-01-11T04:54:28.756Z,30.36
2024-01-11T04:55:35.415Z,30.42
2024-01-11T04:56:40.734Z,30.47
2024-01-11T04:57:47.430Z,30.49
2024-01-11T04:58:52.840Z,30.51
2024-01-11T05:00:03.663Z,30.52
2024-01-11T05:01:09.848Z,30.56
2024-01-11T05:02:16.469Z,30.59
2024-01-11T05:03:21.892Z,30.63
2024-01-11T05:04:28.694Z,30.66
2024-01-11T05:05:34.078Z,30.67
2024-01-11T05:06:40.788Z,30.69
2024-01-11T05:07:46.118Z,30.69
2024-01-11T05:08:54.069Z,30.71
2024-01-11T05:09:59.598Z,30.72
2024-01-11T05:11:06.201Z,30.75
2024-01-11T05:12:11.860Z,30.73
2024-01-11T05:13:18.486Z,30.72
2024-01-11T05:14:23.934Z,30.72
2024-01-11T05:15:32.331Z,30.74
2024-01-11T05:16:38.492Z,30.73
2024-01-11T05:17:45.326Z,30.72
2024-01-11T05:18:50.766Z,30.73
2024-01-11T05:19:57.612Z,30.72
2024-01-11T05:21:02.999Z,30.72
2024-01-11T05:22:09.756Z,30.70
2024-01-11T05:23:15.133Z,30.69
2024-01-11T05:24:21.769Z,30.67
2024-01-11T05:25:27.077Z,30.66
2024-01-11T05:26:33.718Z,30.65
2024-01-11T05:27:39.108Z,30.65
2024-01-11T05:28:45.705Z,30.62
2024-01-11T05:29:51.070Z,30.60
2024-01-11T05:30:59.668Z,30.57
2024-01-11T05:32:05.201Z,30.56
2024-01-11T05:33:12.071Z,30.55
2024-01-11T05:34:17.692Z,30.54
2024-01-11T05:35:24.664Z,30.55
2024-01-11T05:36:30.076Z,30.55
2024-01-11T05:37:36.720Z,30.55
2024-01-11T05:38:43.255Z,30.56
2024-01-11T05:39:50.025Z,30.56
2024-01-11T05:40:55.542Z,30.57
2024-01-11T05:42:02.279Z,30.59
2024-01-11T05:43:07.747Z,30.59
2024-01-11T05:44:14.451Z,30.59
2024-01-11T05:45:22.861Z,30.59
2024-01-11T05:46:37.001Z,30.61
2024-01-11T05:47:42.561Z,30.63
2024-01-11T05:48:49.433Z,30.63
2024-01-11T05:49:54.909Z,30.62
2024-01-11T05:51:02.391Z,30.62
2024-01-11T05:52:08.376Z,30.59
2024-01-11T05:53:15.058Z,30.58
2024-01-11T05:54:20.436Z,30.56
2024-01-11T05:55:27.012Z,30.55
2024-01-11T05:56:32.360Z,30.55
2024-01-11T05:57:39.064Z,30.53
2024-01-11T05:58:44.410Z,30.53
2024-01-11T05:59:51.236Z,30.54
2024-01-11T06:00:58.119Z,30.54
2024-01-11T06:02:06.575Z,30.54
2024-01-11T06:03:11.947Z,30.54
2024-01-11T06:04:19.065Z,30.54
2024-01-11T06:05:24.542Z,30.54
2024-01-11T06:06:31.289Z,30.54
2024-01-11T06:07:36.590Z,30.56
2024-01-11T06:08:45.333Z,30.56
2024-01-11T06:09:50.710Z,30.56
2024-01-11T06:10:57.369Z,30.56
2024-01-11T06:12:02.706Z,30.55
2024-01-11T06:13:09.580Z,30.54
2024-01-11T06:14:14.974Z,30.55
2024-01-11T06:15:22.249Z,30.55
2024-01-11T06:16:27.643Z,30.58
2024-01-11T06:17:36.161Z,30.60
2024-01-11T06:18:41.956Z,30.64
2024-01-11T06:19:48.656Z,30.68
2024-01-11T06:20:53.978Z,30.76
2024-01-11T06:22:00.687Z,30.79
2024-01-11T06:23:06.167Z,30.82
2024-01-11T06:24:12.775Z,30.83
2024-01-11T06:25:18.725Z,30.85
2024-01-11T06:26:25.896Z,30.89
2024-01-11T06:27:31.301Z,30.89
2024-01-11T06:28:37.996Z,30.89
2024-01-11T06:29:43.345Z,30.89
2024-01-11T06:30:50.364Z,30.90
2024-01-11T06:31:55.885Z,30.93
2024-01-11T06:33:04.420Z,30.97
2024-01-11T06:34:09.812Z,30.99
2024-01-11T06:35:16.503Z,31.00
2024-01-11T06:36:21.874Z,31.00
2024-01-11T06:37:28.470Z,31.00
2024-01-11T06:38:33.803Z,31.00
2024-01-11T06:39:40.509Z,31.04
2024-01-11T06:40:46.190Z,31.07
2024-01-11T06:41:52.785Z,31.10
2024-01-11T06:42:58.130Z,31.14
2024-01-11T06:44:05.056Z,31.19
2024-01-11T06:45:11.500Z,31.27
2024-01-11T06:46:18.168Z,31.33
2024-01-11T06:47:23.670Z,31.35
2024-01-11T06:48:32.179Z,31.35
2024-01-11T06:49:38.335Z,31.35
2024-01-11T06:50:45.079Z,31.35
2024-01-11T06:51:50.462Z,31.35
2024-01-11T06:52:57.261Z,31.34
2024-01-11T06:54:07.222Z,31.35
2024-01-11T06:55:14.747Z,31.36
2024-01-11T06:56:20.978Z,31.35
2024-01-11T06:57:27.755Z,31.34
2024-01-11T06:58:33.032Z,31.33
2024-01-11T06:59:39.917Z,31.31
2024-01-11T07:00:46.032Z,31.30
2024-01-11T07:01:52.847Z,31.29
2024-01-11T07:02:58.225Z,31.27
2024-01-11T07:04:06.758Z,31.26
2024-01-11T07:05:12.377Z,31.28
2024-01-11T07:06:19.627Z,31.28
2024-01-11T07:07:25.290Z,31.28
2024-01-11T07:08:32.300Z,31.29
2024-01-11T07:09:37.598Z,31.30
2024-01-11T07:10:44.892Z,31.32
2024-01-11T07:11:50.252Z,31.33
2024-01-11T07:12:56.956Z,31.36
2024-01-11T07:14:02.532Z,31.46
2024-01-11T07:15:10.605Z,31.49
2024-01-11T07:16:16.554Z,31.55
2024-01-11T07:17:23.713Z,31.58
2024-01-11T07:18:29.254Z,31.60
2024-01-11T07:19:37.689Z,31.64
2024-01-11T07:20:43.132Z,31.64
2024-01-11T07:21:50.388Z,31.63
2024-01-11T07:22:55.685Z,31.62
2024-01-11T07:24:02.402Z,31.61
2024-01-11T07:25:08.214Z,31.59
2024-01-11T07:26:15.616Z,31.58
2024-01-11T07:27:21.571Z,31.58
2024-01-11T07:28:28.685Z,31.57
2024-01-11T07:29:34.117Z,31.54
2024-01-11T07:30:41.016Z,31.52
2024-01-11T07:31:46.376Z,31.51
2024-01-11T07:32:54.231Z,31.51
2024-01-11T07:33:59.690Z,31.49
2024-01-11T07:35:13.101Z,31.48
2024-01-11T07:36:20.613Z,31.48
2024-01-11T07:37:28.264Z,31.48
2024-01-11T07:38:33.600Z,31.49
2024-01-11T07:39:40.741Z,31.49
2024-01-11T07:40:46.221Z,31.51
2024-01-11T07:41:53.034Z,31.52
2024-01-11T07:42:58.372Z,31.53
2024-01-11T07:44:05.122Z,31.55
2024-01-11T07:45:12.781Z,31.55
2024-01-11T07:46:19.499Z,31.58
2024-01-11T07:47:25.050Z,31.60
2024-01-11T07:48:31.774Z,31.62
2024-01-11T07:49:37.267Z,31.63
2024-01-11T07:50:45.786Z,31.65
2024-01-11T07:51:51.581Z,31.66
2024-01-11T07:52:58.916Z,31.68
2024-01-11T07:54:05.145Z,31.69
2024-01-11T07:55:14.133Z,31.69
2024-01-11T07:56:20.147Z,31.71
2024-01-11T07:57:27.090Z,31.71
2024-01-11T07:58:32.477Z,31.71
2024-01-11T07:59:40.002Z,31.71
2024-01-11T08:00:45.420Z,31.70
2024-01-11T08:01:53.191Z,31.70
2024-01-11T08:02:58.707Z,31.71
2024-01-11T08:04:05.434Z,31.71
2024-01-11T08:05:11.482Z,31.69
2024-01-11T08:06:19.875Z,31.67
2024-01-11T08:07:25.269Z,31.65
2024-01-11T08:08:32.105Z,31.66
2024-01-11T08:09:37.770Z,31.69
2024-01-11T08:10:44.441Z,31.73
2024-01-11T08:11:51.367Z,31.77
2024-01-11T08:13:01.954Z,31.80
2024-01-11T08:14:08.067Z,31.81
2024-01-11T08:15:15.481Z,31.83
2024-01-11T08:16:21.133Z,31.83
2024-01-11T08:17:27.934Z,31.82
2024-01-11T08:18:33.409Z,31.79
2024-01-11T08:19:40.065Z,31.79
2024-01-11T08:20:45.421Z,31.80
2024-01-11T08:21:53.740Z,31.80
2024-01-11T08:22:59.562Z,31.82
2024-01-11T08:24:06.969Z,31.84
2024-01-11T08:25:12.546Z,31.85
2024-01-11T08:26:18.332Z,31.85
2024-01-11T08:27:25.053Z,31.86
2024-01-11T08:28:30.365Z,31.85
2024-01-11T08:29:37.669Z,31.85
2024-01-11T08:30:46.765Z,31.85
2024-01-11T08:31:53.554Z,31.86
2024-01-11T08:32:58.939Z,31.89
2024-01-11T08:34:05.892Z,31.88
2024-01-11T08:35:14.319Z,31.90
2024-01-11T08:36:21.301Z,31.90
2024-01-11T08:37:28.334Z,31.91
2024-01-11T08:38:35.013Z,31.92
2024-01-11T08:39:41.295Z,31.93
2024-01-11T08:40:48.785Z,31.95
2024-01-11T08:41:54.699Z,31.97
2024-01-11T08:43:01.363Z,32.01
2024-01-11T08:44:09.809Z,32.05
2024-01-11T08:45:20.320Z,32.10
2024-01-11T08:46:29.275Z,32.14
2024-01-11T08:47:36.019Z,32.15
2024-01-11T08:48:41.764Z,32.16
2024-01-11T08:49:48.659Z,32.17
2024-01-11T08:50:54.120Z,32.17
2024-01-11T08:52:00.784Z,32.18
2024-01-11T08:53:07.934Z,32.19
2024-01-11T08:54:15.028Z,32.19
2024-01-11T08:55:20.439Z,32.20
2024-01-11T08:56:27.304Z,32.19
2024-01-11T08:57:32.557Z,32.21
2024-01-11T08:58:39.218Z,32.22
2024-01-11T08:59:44.679Z,32.24
2024-01-11T09:00:51.468Z,32.27
2024-01-11T09:02:06.259Z,32.28
2024-01-11T09:03:22.101Z,32.31
2024-01-11T09:04:27.513Z,32.33
2024-01-11T09:05:34.537Z,32.34
2024-01-11T09:06:39.822Z,32.33
2024-01-11T09:07:46.832Z,32.37
2024-01-11T09:08:54.894Z,32.38
2024-01-11T09:10:01.549Z,32.39
2024-01-11T09:11:07.230Z,32.39
2024-01-11T09:12:13.955Z,32.40
2024-01-11T09:13:19.174Z,32.43
2024-01-11T09:14:25.857Z,32.46
2024-01-11T09:15:31.250Z,32.47
2024-01-11T09:16:36.595Z,32.50
2024-01-11T09:17:43.214Z,32.53
2024-01-11T09:18:48.629Z,32.55
2024-01-11T09:19:55.791Z,32.55
2024-01-11T09:21:01.137Z,32.56
2024-01-11T09:22:08.044Z,32.55
2024-01-11T09:23:13.455Z,32.55
2024-01-11T09:24:21.961Z,32.57
2024-01-11T09:25:27.254Z,32.57
2024-01-11T09:26:34.058Z,32.58
2024-01-11T09:27:39.571Z,32.60
2024-01-11T09:28:48.353Z,32.61
2024-01-11T09:29:56.873Z,32.61
2024-01-11T09:31:05.833Z,32.62
2024-01-11T09:32:11.408Z,32.64
2024-01-11T09:33:19.143Z,32.64
2024-01-11T09:34:24.788Z,32.63
2024-01-11T09:35:31.564Z,32.63
2024-01-11T09:36:37.028Z,32.62
2024-01-11T09:37:43.923Z,32.61
2024-01-11T09:38:52.966Z,32.62
2024-01-11T09:40:03.287Z,32.62
2024-01-11T09:41:13.999Z,32.60
2024-01-11T09:42:23.821Z,32.58
2024-01-11T09:43:29.890Z,32.58
2024-01-11T09:44:36.801Z,32.58
2024-01-11T09:45:42.244Z,32.59
2024-01-11T09:46:49.709Z,32.59
2024-01-11T09:47:57.165Z,32.59
2024-01-11T09:49:04.282Z,32.59
2024-01-11T09:50:11.163Z,32.60
2024-01-11T09:51:18.309Z,32.61
2024-01-11T09:52:24.491Z,32.62
2024-01-11T09:53:32.043Z,32.63
2024-01-11T09:54:37.453Z,32.64
2024-01-11T09:55:46.001Z,32.64
2024-01-11T09:56:52.835Z,32.64
2024-01-11T09:58:02.271Z,32.62
2024-01-11T09:59:13.371Z,32.61
2024-01-11T10:00:24.944Z,32.60
2024-01-11T10:01:30.375Z,32.58
2024-01-11T10:02:37.245Z,32.56
2024-01-11T10:03:44.493Z,32.54
2024-01-11T10:04:51.454Z,32.54
2024-01-11T10:06:00.721Z,32.51
2024-01-11T10:07:09.662Z,32.49
2024-01-11T10:08:15.603Z,32.48
2024-01-11T10:09:22.569Z,32.47
2024-01-11T10:10:28.321Z,32.45
2024-01-11T10:11:37.146Z,32.45
2024-01-11T10:12:43.478Z,32.41
2024-01-11T10:13:50.158Z,32.38
2024-01-11T10:14:55.696Z,32.33
2024-01-11T10:16:17.904Z,32.28
2024-01-11T10:17:25.627Z,32.25
2024-01-11T10:18:33.011Z,32.22
2024-01-11T10:19:38.765Z,32.18
2024-01-11T10:20:45.758Z,32.16
2024-01-11T10:21:51.560Z,32.12
2024-01-11T10:22:58.375Z,32.08
2024-01-11T10:24:06.940Z,32.05
2024-01-11T10:25:15.339Z,32.01
2024-01-11T10:26:21.649Z,31.97
2024-01-11T10:27:33.175Z,31.94
2024-01-11T10:28:40.192Z,31.90
2024-01-11T10:29:47.658Z,31.87
2024-01-11T10:30:55.865Z,31.83
2024-01-11T10:32:01.396Z,31.79
2024-01-11T10:33:08.788Z,31.77
2024-01-11T10:34:14.480Z,31.73
2024-01-11T10:35:20.960Z,31.70
2024-01-11T10:36:28.203Z,31.67
2024-01-11T10:37:35.327Z,31.64
2024-01-11T10:38:43.661Z,31.61
2024-01-11T10:41:25.865Z,31.54
2024-01-11T10:42:42.999Z,31.52
2024-01-11T10:43:51.172Z,31.50
2024-01-11T10:44:59.914Z,31.45
2024-01-11T10:46:09.249Z,31.43
2024-01-11T10:47:14.943Z,31.39
2024-01-11T10:48:21.964Z,31.35
2024-01-11T10:49:29.628Z,31.31
2024-01-11T10:50:40.464Z,31.29
2024-01-11T10:51:49.041Z,31.26
2024-01-11T10:53:15.367Z,31.23
2024-01-11T10:54:21.196Z,31.20
2024-01-11T10:55:28.172Z,31.19
2024-01-11T10:56:34.572Z,31.15
2024-01-11T10:57:43.325Z,31.12
2024-01-11T10:58:49.440Z,31.09
2024-01-11T10:59:57.618Z,31.06
2024-01-11T11:01:03.521Z,31.03
2024-01-11T11:02:15.447Z,31.01
2024-01-11T11:03:22.358Z,30.98
2024-01-11T11:04:30.186Z,30.97
2024-01-11T11:05:38.030Z,30.94
2024-01-11T11:06:45.003Z,30.92
2024-01-11T11:07:51.603Z,30.89
2024-01-11T11:08:58.624Z,30.87
2024-01-11T11:10:04.392Z,30.84
2024-01-11T11:11:11.273Z,30.83
2024-01-11T11:12:17.219Z,30.80
2024-01-11T11:13:26.439Z,30.78
2024-01-11T11:14:32.386Z,30.75
2024-01-11T11:15:41.116Z,30.71
2024-01-11T11:16:46.711Z,30.69
2024-01-11T11:17:55.790Z,30.66
2024-01-11T11:19:01.502Z,30.64
2024-01-11T11:20:09.686Z,30.60
2024-01-11T11:21:15.438Z,30.58
2024-01-11T11:22:22.370Z,30.55
2024-01-11T11:23:27.928Z,30.52
2024-01-11T11:24:34.695Z,30.51
2024-01-11T11:25:41.699Z,30.48
2024-01-11T11:26:48.740Z,30.45
2024-01-11T11:27:55.202Z,30.42
2024-01-11T11:29:03.546Z,30.40
2024-01-11T11:30:10.429Z,30.37
2024-01-11T11:31:17.232Z,30.34
2024-01-11T11:32:43.456Z,30.32
2024-01-11T11:33:50.274Z,30.31
2024-01-11T11:34:56.328Z,30.29
2024-01-11T11:36:03.523Z,30.28
2024-01-11T11:37:26.557Z,30.25
2024-01-11T11:38:33.993Z,30.25
2024-01-11T11:39:39.650Z,30.24
2024-01-11T11:40:47.646Z,30.22
2024-01-11T11:41:55.277Z,30.22
2024-01-11T11:43:00.655Z,30.20
2024-01-11T11:44:08.707Z,30.18
2024-01-11T11:45:15.684Z,30.17
2024-01-11T11:46:22.239Z,30.15
2024-01-11T11:47:29.463Z,30.12
2024-01-11T11:48:58.204Z,30.10
2024-01-11T11:50:12.478Z,30.07
2024-01-11T11:51:20.568Z,30.04
2024-01-11T11:52:26.436Z,30.03
2024-01-11T11:53:36.257Z,30.01
2024-01-11T11:54:41.801Z,30.01
2024-01-11T11:55:48.444Z,29.98
2024-01-11T11:56:55.937Z,29.97
2024-01-11T11:58:03.412Z,29.97
2024-01-11T11:59:10.889Z,29.96
2024-01-11T12:00:19.237Z,29.94
2024-01-11T12:01:25.041Z,29.92
2024-01-11T12:02:32.335Z,29.91
2024-01-11T12:03:39.868Z,29.90
2024-01-11T12:04:46.535Z,29.90
2024-01-11T12:05:52.306Z,29.88
2024-01-11T12:06:59.592Z,29.84
2024-01-11T12:08:04.984Z,29.83
2024-01-11T12:09:12.161Z,29.82
2024-01-11T12:10:18.211Z,29.80
2024-01-11T12:11:25.425Z,29.80
2024-01-11T12:12:31.328Z,29.79
2024-01-11T12:13:38.611Z,29.79
2024-01-11T12:14:45.900Z,29.77
2024-01-11T12:15:52.664Z,29.75
2024-01-11T12:17:00.485Z,29.75
2024-01-11T12:18:07.531Z,29.73
2024-01-11T12:19:13.050Z,29.72
2024-01-11T12:20:22.742Z,29.72
2024-01-11T12:21:29.594Z,29.71
2024-01-11T12:22:36.351Z,29.70
2024-01-11T12:23:42.613Z,29.70
2024-01-11T12:24:49.229Z,29.70
2024-01-11T12:25:54.590Z,29.70
2024-01-11T12:27:01.873Z,29.70
2024-01-11T12:28:07.832Z,29.70
2024-01-11T12:29:15.682Z,29.68
2024-01-11T12:30:23.105Z,29.67
2024-01-11T12:31:29.926Z,29.66
2024-01-11T12:32:35.593Z,29.66
2024-01-11T12:33:43.780Z,29.66
2024-01-11T12:34:49.668Z,29.64
2024-01-11T12:35:56.413Z,29.63
2024-01-11T12:37:04.356Z,29.62
2024-01-11T12:38:12.039Z,29.61
2024-01-11T12:39:17.834Z,29.60
2024-01-11T12:40:24.530Z,29.59
2024-01-11T12:41:29.988Z,29.57
2024-01-11T12:42:37.467Z,29.56
2024-01-11T12:43:42.849Z,29.55
2024-01-11T12:44:55.124Z,29.54
2024-01-11T12:46:02.486Z,29.52
2024-01-11T12:47:09.996Z,29.51
2024-01-11T12:48:17.100Z,29.50
2024-01-11T12:49:24.365Z,29.48
2024-01-11T12:50:30.392Z,29.48
2024-01-11T12:51:37.047Z,29.47
2024-01-11T12:52:42.373Z,29.46
2024-01-11T12:53:51.407Z,29.44
2024-01-11T12:54:56.824Z,29.44
2024-01-11T12:56:13.089Z,29.41
2024-01-11T12:57:23.027Z,29.42
2024-01-11T12:58:29.916Z,29.40
2024-01-11T12:59:35.179Z,29.39
2024-01-11T13:00:42.829Z,29.41
2024-01-11T13:01:49.896Z,29.40
2024-01-11T13:02:56.707Z,29.39
2024-01-11T13:04:01.997Z,29.38
2024-01-11T13:05:09.985Z,29.38
2024-01-11T13:06:16.167Z,29.36
2024-01-11T13:07:42.854Z,29.36
2024-01-11T13:08:48.237Z,29.34
2024-01-11T13:09:54.829Z,29.34
2024-01-11T13:11:00.100Z,29.31
2024-01-11T13:12:07.238Z,29.30
2024-01-11T13:13:12.511Z,29.29
2024-01-11T13:14:21.754Z,29.27
2024-01-11T13:15:27.213Z,29.27
2024-01-11T13:16:34.160Z,29.25
2024-01-11T13:17:41.912Z,29.22
2024-01-11T13:18:50.619Z,29.21
2024-01-11T13:19:57.329Z,29.19
2024-01-11T13:21:05.793Z,29.17
2024-01-11T13:22:12.029Z,29.15
2024-01-11T13:23:24.581Z,29.14
2024-01-11T13:24:30.293Z,29.12
2024-01-11T13:25:37.268Z,29.11
2024-01-11T13:26:43.641Z,29.09
2024-01-11T13:27:51.222Z,29.10
2024-01-11T13:28:57.031Z,29.07
2024-01-11T13:30:04.444Z,29.07
2024-01-11T13:31:13.108Z,29.06
2024-01-11T13:32:25.034Z,29.06
2024-01-11T13:33:34.523Z,29.05
2024-01-11T13:34:46.570Z,29.03
2024-01-11T13:35:54.259Z,29.02
2024-01-11T13:37:02.269Z,29.02
2024-01-11T13:38:13.924Z,29.01
2024-01-11T13:39:23.390Z,28.99
2024-01-11T13:40:31.405Z,28.98
2024-01-11T13:41:37.340Z,28.96
2024-01-11T13:42:46.253Z,28.94
2024-01-11T13:43:52.820Z,28.93
2024-01-11T13:45:02.888Z,28.92
2024-01-11T13:46:09.721Z,28.91
2024-01-11T13:47:18.539Z,28.91
2024-01-11T13:48:24.539Z,28.90
2024-01-11T13:49:34.043Z,28.90
2024-01-11T13:50:40.272Z,28.89
2024-01-11T13:51:53.985Z,28.89
2024-01-11T13:53:07.284Z,28.89
2024-01-11T13:54:18.077Z,28.87
2024-01-11T13:55:25.141Z,28.86
2024-01-11T13:56:32.796Z,28.85
2024-01-11T13:57:39.555Z,28.84
2024-01-11T13:58:47.593Z,28.83
2024-01-11T13:59:56.212Z,28.81
2024-01-11T14:01:05.369Z,28.80
2024-01-11T14:02:11.862Z,28.79
2024-01-11T14:03:20.045Z,28.77
2024-01-11T14:04:27.506Z,28.75
2024-01-11T14:05:37.528Z,28.74
2024-01-11T14:06:43.966Z,28.72
2024-01-11T14:08:12.145Z,28.72
2024-01-11T14:09:37.848Z,28.72
2024-01-11T14:10:45.960Z,28.72
2024-01-11T14:11:52.423Z,28.71
2024-01-11T14:13:00.284Z,28.70
2024-01-11T14:14:06.555Z,28.71
2024-01-11T14:15:27.904Z,28.70
2024-01-11T14:16:34.140Z,28.69
2024-01-11T14:17:44.312Z,28.69
2024-01-11T14:18:52.313Z,28.68
2024-01-11T14:20:03.689Z,28.66
2024-01-11T14:21:14.023Z,28.66
2024-01-11T14:22:24.220Z,28.64
2024-01-11T14:23:32.739Z,28.65
2024-01-11T14:24:39.511Z,28.64
2024-01-11T14:25:47.834Z,28.62